Time;durP1;ratioP1;P1;durP2;ratioP2;P2;SDS_P1;SDS_P2;PMS_P1;PMS_P2;Temp;Humidity;BMP_temperature;BMP_pressure;BME280_temperature;BME280_humidity;BME280_pressure;Samples;Min_cycle;Max_cycle;Signal;HPM_P1;HPM_P2
2021/06/28 00:01:34;;;;;;;9.33;7.63;;;20.00;99.90;;;;;;5091272;28;20248;-76
2021/06/28 00:04:02;;;;;;;11.30;8.17;;;20.10;99.90;;;;;;5089214;28;20165;-74
2021/06/28 00:06:28;;;;;;;8.60;7.23;;;20.20;99.90;;;;;;5095555;28;20189;-79
2021/06/28 00:08:56;;;;;;;9.90;8.13;;;20.30;99.90;;;;;;5094922;28;20177;-80
2021/06/28 00:11:22;;;;;;;9.27;8.13;;;20.20;99.90;;;;;;5088949;28;20170;-76
2021/06/28 00:13:49;;;;;;;9.00;8.10;;;20.30;99.90;;;;;;5086507;28;20177;-79
2021/06/28 00:16:15;;;;;;;9.17;7.87;;;20.30;99.90;;;;;;5085520;28;20193;-73
2021/06/28 00:18:51;;;;;;;9.83;7.87;;;20.30;99.90;;;;;;5083485;28;20633;-78
2021/06/28 00:21:17;;;;;;;8.27;7.37;;;20.20;99.90;;;;;;5075275;28;20610;-79
2021/06/28 00:23:44;;;;;;;10.10;7.90;;;20.20;99.90;;;;;;5074227;28;20159;-80
2021/06/28 00:26:11;;;;;;;9.87;8.33;;;20.40;99.90;;;;;;5074200;28;20333;-77
2021/06/28 00:28:37;;;;;;;11.80;8.50;;;20.50;99.90;;;;;;5076171;28;20630;-79
2021/06/28 00:31:03;;;;;;;11.23;8.67;;;20.50;99.90;;;;;;5075495;28;20259;-78
2021/06/28 00:33:30;;;;;;;11.17;8.97;;;20.60;99.90;;;;;;5077262;28;20602;-74
2021/06/28 00:35:56;;;;;;;10.20;9.20;;;20.70;99.90;;;;;;5082731;28;20170;-78
2021/06/28 00:38:22;;;;;;;9.57;8.50;;;20.80;99.90;;;;;;5081596;28;20175;-74
2021/06/28 00:40:48;;;;;;;9.80;8.50;;;20.80;99.90;;;;;;5081293;28;20190;-77
2021/06/28 00:43:14;;;;;;;11.90;9.30;;;20.90;99.60;;;;;;5078195;28;20194;-78
2021/06/28 00:45:41;;;;;;;9.40;8.50;;;20.90;99.30;;;;;;5081017;28;20180;-80
2021/06/28 00:48:13;;;;;;;10.57;8.90;;;20.90;99.00;;;;;;5081923;28;20191;-81
2021/06/28 00:50:44;;;;;;;10.23;9.23;;;20.90;98.70;;;;;;5082368;28;20158;-81
2021/06/28 00:53:12;;;;;;;9.87;8.87;;;20.90;98.30;;;;;;5084798;28;20193;-77
2021/06/28 00:55:41;;;;;;;9.07;8.17;;;21.00;98.20;;;;;;5078621;28;20185;-81
2021/06/28 00:58:07;;;;;;;9.63;8.70;;;21.00;98.20;;;;;;5074358;28;20165;-80
2021/06/28 01:00:34;;;;;;;9.97;8.97;;;21.00;98.40;;;;;;5074913;28;20167;-80
2021/06/28 01:03:00;;;;;;;9.80;8.80;;;20.80;98.50;;;;;;5075883;28;20164;-74
2021/06/28 01:05:30;;;;;;;11.60;9.23;;;20.90;98.80;;;;;;5077221;28;20245;-79
2021/06/28 01:07:56;;;;;;;10.10;9.10;;;20.90;98.40;;;;;;5082956;28;20724;-79
2021/06/28 01:10:22;;;;;;;10.07;9.07;;;21.00;98.00;;;;;;5082051;28;20189;-77
2021/06/28 01:12:49;;;;;;;10.77;9.67;;;21.00;97.70;;;;;;5081782;28;20198;-79
2021/06/28 01:15:18;;;;;;;9.63;8.73;;;20.80;98.40;;;;;;5083684;28;20178;-81
2021/06/28 01:17:44;;;;;;;13.87;9.70;;;20.60;99.20;;;;;;5088370;28;20634;-80
2021/06/28 01:20:14;;;;;;;10.93;9.83;;;20.60;99.60;;;;;;5089860;28;20174;-82
2021/06/28 01:22:43;;;;;;;10.67;9.67;;;20.60;99.70;;;;;;5089305;28;20160;-81
2021/06/28 01:25:11;;;;;;;10.93;9.80;;;20.70;99.00;;;;;;5090249;28;20216;-80
2021/06/28 01:27:39;;;;;;;11.33;10.13;;;20.80;98.70;;;;;;5076665;28;20283;-76
2021/06/28 01:30:11;;;;;;;11.70;10.60;;;20.90;97.90;;;;;;5079445;28;20167;-77
2021/06/28 01:32:37;;;;;;;11.47;10.23;;;20.90;97.50;;;;;;5086582;28;20171;-76
2021/06/28 01:35:04;;;;;;;11.87;10.67;;;20.80;97.50;;;;;;5087543;28;20165;-80
2021/06/28 01:37:31;;;;;;;12.10;10.90;;;20.70;97.90;;;;;;5084576;28;20184;-75
2021/06/28 01:39:59;;;;;;;14.07;10.87;;;20.70;98.10;;;;;;5083371;28;20170;-75
2021/06/28 01:42:26;;;;;;;10.63;9.60;;;20.60;98.60;;;;;;5086538;28;20245;-78
2021/06/28 01:44:52;;;;;;;11.73;10.57;;;20.60;99.20;;;;;;5090610;28;20166;-78
2021/06/28 01:47:18;;;;;;;13.73;11.10;;;20.50;99.60;;;;;;5095120;28;20205;-77
2021/06/28 01:49:45;;;;;;;12.00;10.80;;;20.50;99.80;;;;;;5093383;28;20171;-76
2021/06/28 01:52:11;;;;;;;11.27;10.07;;;20.50;99.90;;;;;;5091815;28;20631;-72
2021/06/28 01:54:38;;;;;;;12.93;11.63;;;20.50;99.90;;;;;;5082005;28;20224;-80
2021/06/28 01:57:04;;;;;;;14.73;11.47;;;20.50;99.70;;;;;;5076265;28;20183;-74
2021/06/28 01:59:33;;;;;;;12.17;10.73;;;20.50;99.70;;;;;;5076087;28;20530;-79
2021/06/28 02:02:00;;;;;;;12.33;10.73;;;20.50;99.90;;;;;;5075948;28;20182;-80
2021/06/28 02:04:27;;;;;;;12.50;10.60;;;20.30;99.90;;;;;;5076245;28;20519;-80
2021/06/28 02:06:54;;;;;;;12.60;11.33;;;20.50;99.90;;;;;;5076081;28;20693;-80
2021/06/28 02:09:20;;;;;;;13.87;11.40;;;20.50;99.90;;;;;;5076087;28;20171;-81
2021/06/28 02:11:47;;;;;;;12.37;11.17;;;20.50;99.20;;;;;;5075976;28;20519;-80
2021/06/28 02:14:13;;;;;;;13.93;12.00;;;20.40;99.10;;;;;;5076452;28;20171;-74
2021/06/28 02:16:43;;;;;;;12.50;11.30;;;20.30;99.10;;;;;;5097721;28;20245;-73
2021/06/28 02:19:08;;;;;;;12.03;10.77;;;20.30;99.40;;;;;;5098138;28;20166;-74
2021/06/28 02:21:34;;;;;;;14.03;11.03;;;20.20;99.90;;;;;;5088932;28;20187;-78
2021/06/28 02:24:00;;;;;;;11.60;9.93;;;20.10;99.90;;;;;;5089020;28;20831;-80
2021/06/28 02:26:25;;;;;;;12.90;10.27;;;20.20;99.90;;;;;;5086570;28;20192;-80
2021/06/28 02:28:57;;;;;;;12.60;11.03;;;20.30;99.90;;;;;;5076604;28;20647;-81
2021/06/28 02:31:26;;;;;;;11.73;10.43;;;20.30;99.90;;;;;;5076092;28;20164;-74
2021/06/28 02:33:57;;;;;;;11.33;10.23;;;20.40;99.90;;;;;;5075561;28;20178;-73
2021/06/28 02:36:25;;;;;;;12.67;10.60;;;20.30;99.90;;;;;;5075316;28;20796;-80
2021/06/28 02:38:52;;;;;;;11.37;10.27;;;20.30;99.90;;;;;;5075170;28;20203;-81
2021/06/28 02:41:20;;;;;;;11.80;10.60;;;20.20;99.90;;;;;;5075224;28;20173;-75
2021/06/28 02:43:47;;;;;;;12.53;11.23;;;20.20;99.90;;;;;;5075761;28;20642;-78
2021/06/28 02:46:13;;;;;;;12.00;10.80;;;20.30;99.90;;;;;;5075065;28;20205;-80
2021/06/28 02:48:39;;;;;;;11.73;10.60;;;20.30;99.90;;;;;;5075249;28;20187;-80
2021/06/28 02:51:08;;;;;;;12.07;10.93;;;20.20;99.90;;;;;;5092105;28;20162;-76
2021/06/28 02:53:35;;;;;;;12.43;10.93;;;20.30;99.90;;;;;;5098129;28;20165;-72
2021/06/28 02:56:15;;;;;;;13.13;11.13;;;20.30;99.90;;;;;;5098385;28;20215;-76
2021/06/28 02:58:49;;;;;;;13.53;11.10;;;20.50;99.90;;;;;;5093156;28;20520;-74
2021/06/28 03:01:18;;;;;;;13.00;10.53;;;20.50;99.80;;;;;;5090050;28;20154;-78
2021/06/28 03:03:45;;;;;;;14.03;12.53;;;20.50;99.60;;;;;;5091396;28;20177;-78
2021/06/28 03:06:13;;;;;;;14.20;12.70;;;20.50;99.10;;;;;;5082550;28;20195;-76
2021/06/28 03:08:46;;;;;;;13.23;11.63;;;20.50;99.10;;;;;;5081791;28;20155;-81
2021/06/28 03:11:20;;;;;;;12.77;11.57;;;20.50;99.30;;;;;;5081273;28;20161;-80
2021/06/28 03:13:47;;;;;;;18.07;12.03;;;20.50;99.50;;;;;;5080579;28;20171;-75
2021/06/28 03:16:14;;;;;;;13.30;11.77;;;20.50;99.50;;;;;;5080745;28;20165;-79
2021/06/28 03:18:41;;;;;;;14.30;12.80;;;20.30;99.90;;;;;;5082969;28;20181;-79
2021/06/28 03:21:08;;;;;;;13.33;11.53;;;20.10;99.90;;;;;;5080585;28;20165;-81
2021/06/28 03:23:34;;;;;;;12.97;11.67;;;20.00;99.90;;;;;;5080924;28;20169;-75
2021/06/28 03:26:00;;;;;;;14.17;12.80;;;19.80;99.90;;;;;;5079708;28;20198;-73
2021/06/28 03:28:26;;;;;;;14.53;12.73;;;19.80;99.90;;;;;;5079839;28;20178;-75
2021/06/28 03:30:54;;;;;;;14.33;12.90;;;19.80;99.90;;;;;;5079355;28;20182;-80
2021/06/28 03:33:20;;;;;;;15.63;12.93;;;19.80;99.90;;;;;;5082572;28;20181;-73
2021/06/28 03:35:45;;;;;;;13.63;11.80;;;19.80;99.90;;;;;;5076508;28;20162;-77
2021/06/28 03:38:12;;;;;;;14.17;12.57;;;20.00;99.90;;;;;;5077582;28;20179;-75
2021/06/28 03:40:39;;;;;;;13.43;11.77;;;20.00;99.90;;;;;;5075612;28;20166;-80
2021/06/28 03:43:08;;;;;;;14.23;12.73;;;20.00;99.90;;;;;;5073916;28;20189;-76
2021/06/28 03:45:36;;;;;;;14.27;12.80;;;20.10;99.90;;;;;;5076654;28;20197;-78
2021/06/28 03:48:05;;;;;;;14.73;12.57;;;20.00;99.90;;;;;;5090176;28;20209;-79
2021/06/28 03:50:30;;;;;;;14.13;12.40;;;20.20;99.90;;;;;;5094926;28;20155;-82
2021/06/28 03:53:09;;;;;;;14.53;12.60;;;20.20;99.90;;;;;;5093923;28;20164;-77
2021/06/28 03:55:39;;;;;;;15.13;12.30;;;20.30;99.90;;;;;;5092956;28;20171;-79
2021/06/28 03:58:07;;;;;;;15.37;13.23;;;20.30;99.90;;;;;;5092727;28;20182;-79
2021/06/28 04:00:34;;;;;;;15.67;12.33;;;20.40;99.90;;;;;;5088396;28;20196;-76
2021/06/28 04:03:02;;;;;;;13.23;11.90;;;20.30;99.90;;;;;;5084428;28;20166;-81
2021/06/28 04:05:28;;;;;;;13.07;11.77;;;20.20;99.90;;;;;;5083627;28;20190;-81
2021/06/28 04:07:54;;;;;;;14.97;13.00;;;20.10;99.90;;;;;;5080989;28;20205;-79
2021/06/28 04:10:24;;;;;;;14.97;12.43;;;20.10;99.90;;;;;;5094788;28;20186;-75
2021/06/28 04:12:51;;;;;;;14.00;12.60;;;20.10;99.90;;;;;;5096472;28;20170;-75
2021/06/28 04:15:18;;;;;;;16.47;13.13;;;20.00;99.90;;;;;;5095484;28;20158;-71
2021/06/28 04:17:49;;;;;;;14.07;12.77;;;20.10;99.90;;;;;;5094791;28;20168;-76
2021/06/28 04:20:17;;;;;;;13.67;12.37;;;20.10;99.90;;;;;;5094623;28;20198;-80
2021/06/28 04:22:43;;;;;;;14.37;12.87;;;20.40;99.90;;;;;;5080298;28;20213;-74
2021/06/28 04:25:14;;;;;;;15.53;13.93;;;20.40;99.90;;;;;;5075803;28;20602;-80
2021/06/28 04:27:42;;;;;;;17.03;13.37;;;20.60;99.90;;;;;;5075214;28;20658;-79
2021/06/28 04:30:10;;;;;;;14.17;12.60;;;20.70;99.90;;;;;;5074959;28;20159;-73
2021/06/28 04:32:40;;;;;;;14.00;11.53;;;20.80;99.40;;;;;;5073746;28;20162;-78
2021/06/28 04:35:11;;;;;;;14.63;13.13;;;20.90;99.00;;;;;;5073527;28;20187;-74
2021/06/28 04:37:38;;;;;;;14.43;12.77;;;21.00;97.70;;;;;;5073953;28;20165;-80
2021/06/28 04:40:05;;;;;;;14.77;13.17;;;21.10;96.40;;;;;;5073272;28;20227;-77
2021/06/28 04:42:31;;;;;;;13.97;12.50;;;21.10;96.00;;;;;;5073553;28;20225;-77
2021/06/28 04:44:57;;;;;;;14.10;12.60;;;21.10;96.00;;;;;;5073647;28;20259;-81
2021/06/28 04:47:23;;;;;;;13.37;12.07;;;21.20;95.60;;;;;;5073110;28;20204;-79
2021/06/28 04:49:48;;;;;;;14.67;12.47;;;21.20;95.50;;;;;;5073028;28;20171;-74
2021/06/28 04:52:14;;;;;;;13.97;12.57;;;21.20;95.00;;;;;;5073524;28;20184;-79
2021/06/28 04:54:41;;;;;;;13.47;12.00;;;21.30;94.00;;;;;;5072443;28;20654;-80
2021/06/28 04:57:07;;;;;;;13.30;11.97;;;21.20;93.80;;;;;;5073951;28;20167;-74
2021/06/28 04:59:32;;;;;;;16.57;12.80;;;21.10;94.50;;;;;;5073786;28;20170;-75
2021/06/28 05:01:58;;;;;;;14.90;13.20;;;21.00;95.10;;;;;;5082914;28;20224;-76
2021/06/28 05:04:25;;;;;;;16.73;13.80;;;21.00;95.90;;;;;;5072990;28;20206;-79
2021/06/28 05:06:51;;;;;;;18.03;12.87;;;21.00;95.80;;;;;;5075897;28;20318;-78
2021/06/28 05:09:17;;;;;;;18.27;13.37;;;21.10;95.20;;;;;;5076997;28;20628;-79
2021/06/28 05:11:44;;;;;;;14.97;13.10;;;21.30;94.60;;;;;;5077218;28;20182;-80
2021/06/28 05:14:11;;;;;;;14.90;13.37;;;21.30;94.00;;;;;;5077035;28;20179;-79
2021/06/28 05:16:37;;;;;;;15.57;12.53;;;21.30;94.00;;;;;;5076985;28;20571;-80
2021/06/28 05:19:03;;;;;;;14.23;12.60;;;21.20;94.20;;;;;;5076650;28;20184;-76
2021/06/28 05:21:28;;;;;;;16.60;12.63;;;21.10;95.20;;;;;;5076481;28;20169;-80
2021/06/28 05:23:54;;;;;;;17.17;12.97;;;21.00;95.10;;;;;;5077312;28;20195;-80
2021/06/28 05:26:20;;;;;;;14.43;12.93;;;21.00;95.90;;;;;;5076931;28;20254;-82
2021/06/28 05:28:45;;;;;;;16.47;12.83;;;20.90;95.70;;;;;;5076811;28;20182;-80
2021/06/28 05:31:11;;;;;;;16.57;11.80;;;20.80;96.70;;;;;;5076882;28;20182;-80
2021/06/28 05:33:37;;;;;;;14.73;11.93;;;20.90;97.20;;;;;;5077068;28;20181;-80
2021/06/28 05:36:03;;;;;;;15.03;12.23;;;21.00;96.50;;;;;;5076850;28;20542;-79
2021/06/28 05:38:28;;;;;;;16.30;13.03;;;21.20;95.90;;;;;;5077781;28;20179;-79
2021/06/28 05:40:54;;;;;;;14.67;12.87;;;21.40;95.00;;;;;;5096488;28;20221;-79
2021/06/28 05:43:20;;;;;;;15.07;13.47;;;21.50;94.30;;;;;;5096150;28;20192;-80
2021/06/28 05:45:46;;;;;;;17.60;12.80;;;21.50;93.20;;;;;;5094749;28;20191;-74
2021/06/28 05:48:11;;;;;;;14.70;11.93;;;21.60;93.10;;;;;;5098901;28;20219;-79
2021/06/28 05:50:37;;;;;;;18.70;12.53;;;21.70;92.50;;;;;;5098599;28;20185;-79
2021/06/28 05:53:03;;;;;;;15.27;12.57;;;21.80;91.80;;;;;;5095568;28;20178;-79
2021/06/28 05:55:32;;;;;;;16.53;13.30;;;21.90;91.00;;;;;;5090199;28;20240;-80
2021/06/28 05:58:01;;;;;;;19.30;12.60;;;22.00;90.00;;;;;;5090341;28;20543;-75
2021/06/28 06:00:27;;;;;;;17.23;12.87;;;22.00;88.10;;;;;;5089857;28;20157;-74
2021/06/28 06:02:54;;;;;;;14.77;12.47;;;22.10;87.10;;;;;;5080041;28;20218;-79
2021/06/28 06:05:25;;;;;;;16.23;12.67;;;22.20;86.30;;;;;;5077696;28;20212;-74
2021/06/28 06:07:57;;;;;;;16.77;13.37;;;22.20;84.00;;;;;;5077624;28;20204;-82
2021/06/28 06:10:26;;;;;;;15.33;13.53;;;22.30;83.60;;;;;;5077508;28;20236;-83
2021/06/28 06:12:52;;;;;;;15.97;13.30;;;22.40;80.80;;;;;;5077220;28;20175;-82
2021/06/28 06:15:21;;;;;;;16.83;12.57;;;22.50;77.30;;;;;;5076561;28;20166;-82
2021/06/28 06:17:46;;;;;;;17.13;13.13;;;22.60;74.60;;;;;;5074476;28;20196;-81
2021/06/28 06:20:12;;;;;;;15.27;13.70;;;22.80;69.30;;;;;;5078815;28;20682;-73
2021/06/28 06:22:44;;;;;;;17.90;11.90;;;22.90;64.90;;;;;;5077466;28;20235;-80
2021/06/28 06:25:11;;;;;;;15.53;11.27;;;23.10;60.60;;;;;;5086764;28;20197;-76
2021/06/28 06:27:37;;;;;;;10.80;9.80;;;23.10;57.30;;;;;;5086904;28;20178;-74
2021/06/28 06:30:05;;;;;;;11.30;9.27;;;23.10;52.80;;;;;;5093251;28;20172;-74
2021/06/28 06:32:31;;;;;;;11.57;9.73;;;23.10;50.10;;;;;;5089976;28;20258;-74
2021/06/28 06:34:57;;;;;;;11.10;9.57;;;23.10;43.40;;;;;;5058968;28;20219;-75
2021/06/28 06:37:23;;;;;;;10.43;9.33;;;23.10;38.80;;;;;;5037389;28;20201;-79
2021/06/28 06:39:49;;;;;;;11.63;8.70;;;23.10;38.60;;;;;;5035265;28;20164;-82
2021/06/28 06:42:14;;;;;;;11.70;9.80;;;23.10;40.30;;;;;;5041261;28;20169;-79
2021/06/28 06:44:40;;;;;;;12.37;9.30;;;23.00;39.60;;;;;;5041669;28;20178;-81
2021/06/28 06:47:06;;;;;;;11.80;9.77;;;22.80;46.50;;;;;;5040625;28;20246;-76
2021/06/28 06:49:31;;;;;;;12.33;9.37;;;22.70;53.60;;;;;;5039029;28;20167;-79
2021/06/28 06:51:57;;;;;;;11.17;9.53;;;22.60;57.40;;;;;;5046170;28;20225;-81
2021/06/28 06:54:23;;;;;;;11.43;8.90;;;22.80;56.30;;;;;;5040994;28;20646;-80
2021/06/28 06:56:48;;;;;;;12.53;9.30;;;22.90;55.00;;;;;;5041969;28;20174;-80
2021/06/28 06:59:14;;;;;;;12.00;8.30;;;22.70;55.90;;;;;;5042415;28;20575;-78
2021/06/28 07:01:42;;;;;;;14.33;9.20;;;22.90;56.10;;;;;;5036970;28;20272;-80
2021/06/28 07:04:08;;;;;;;13.17;9.00;;;23.00;50.50;;;;;;5043606;28;20176;-76
2021/06/28 07:06:34;;;;;;;13.93;9.87;;;23.20;47.90;;;;;;5051784;28;20688;-76
2021/06/28 07:08:59;;;;;;;12.97;8.33;;;23.20;43.00;;;;;;5050377;28;20170;-81
2021/06/28 07:11:25;;;;;;;12.67;8.03;;;23.20;44.10;;;;;;5042139;28;20175;-76
2021/06/28 07:13:52;;;;;;;11.63;7.73;;;23.00;48.90;;;;;;5042869;28;20170;-77
2021/06/28 07:16:23;;;;;;;13.80;9.00;;;23.00;46.00;;;;;;5052723;28;20191;-77
2021/06/28 07:18:49;;;;;;;11.40;8.10;;;23.10;47.20;;;;;;5055599;28;20165;-75
2021/06/28 07:21:28;;;;;;;11.50;8.67;;;23.20;43.60;;;;;;5054336;28;20167;-75
2021/06/28 07:23:55;;;;;;;11.47;8.00;;;23.30;40.40;;;;;;5047789;28;20554;-77
2021/06/28 07:26:24;;;;;;;13.67;8.50;;;23.40;39.00;;;;;;5045281;28;20645;-75
2021/06/28 07:28:54;;;;;;;12.40;8.03;;;23.40;38.10;;;;;;5048472;28;20166;-80
2021/06/28 07:31:26;;;;;;;9.37;6.50;;;23.50;40.50;;;;;;5043995;28;20168;-80
2021/06/28 07:33:54;;;;;;;7.60;6.73;;;23.50;35.00;;;;;;5049790;28;20510;-77
2021/06/28 07:36:20;;;;;;;8.33;7.33;;;23.50;26.90;;;;;;5053526;28;20167;-79
2021/06/28 07:38:52;;;;;;;9.43;8.07;;;23.50;27.40;;;;;;5057602;28;20165;-81
2021/06/28 07:41:17;;;;;;;7.77;6.97;;;23.40;35.70;;;;;;5071734;28;20213;-81
2021/06/28 07:43:43;;;;;;;8.07;6.70;;;23.20;40.10;;;;;;5083287;28;20197;-78
2021/06/28 07:46:11;;;;;;;9.87;6.50;;;23.20;42.00;;;;;;5075828;28;20199;-77
2021/06/28 07:48:37;;;;;;;8.77;6.97;;;23.40;40.30;;;;;;5072961;28;20174;-75
2021/06/28 07:51:03;;;;;;;7.70;6.87;;;23.30;40.60;;;;;;5074004;28;20164;-75
2021/06/28 07:53:31;;;;;;;8.40;6.40;;;23.30;42.10;;;;;;5071681;28;20184;-76
2021/06/28 07:56:14;;;;;;;10.97;7.40;;;23.50;39.20;;;;;;5070837;28;20164;-76
2021/06/28 08:02:02;;;;;;;8.97;6.80;;;23.50;39.50;;;;;;5068915;28;20170;-78
2021/06/28 08:04:34;;;;;;;9.83;7.00;;;23.40;41.30;;;;;;5062670;28;20608;-82
2021/06/28 08:07:23;;;;;;;8.57;7.33;;;23.60;39.80;;;;;;5059851;28;20282;-80
2021/06/28 08:09:49;;;;;;;8.47;6.90;;;23.50;39.10;;;;;;5055568;28;20172;-81
2021/06/28 08:12:21;;;;;;;8.63;6.40;;;23.40;40.40;;;;;;5057447;28;20168;-80
2021/06/28 08:14:47;;;;;;;11.63;6.80;;;23.30;39.50;;;;;;5056128;28;20182;-81
2021/06/28 08:17:13;;;;;;;8.67;6.70;;;23.30;39.20;;;;;;5055385;28;20170;-82
2021/06/28 08:19:42;;;;;;;9.20;7.00;;;23.50;33.80;;;;;;5054714;28;20255;-84
2021/06/28 08:22:09;;;;;;;8.60;7.50;;;23.50;32.70;;;;;;5052835;28;20550;-77
2021/06/28 08:24:36;;;;;;;10.17;7.73;;;23.50;33.00;;;;;;5054259;28;20278;-79
2021/06/28 08:27:03;;;;;;;10.93;7.03;;;23.60;29.90;;;;;;5043379;28;20204;-79
2021/06/28 08:29:31;;;;;;;10.50;8.10;;;23.40;38.40;;;;;;5046742;28;20666;-74
2021/06/28 08:31:56;;;;;;;10.67;7.67;;;23.30;41.00;;;;;;5048082;28;20178;-77
2021/06/28 08:34:23;;;;;;;9.73;8.27;;;23.30;41.00;;;;;;5047076;28;20173;-81
2021/06/28 08:36:49;;;;;;;12.20;8.10;;;23.10;45.90;;;;;;5051835;28;20167;-79
2021/06/28 08:39:16;;;;;;;11.63;8.70;;;23.10;49.60;;;;;;5044792;28;20248;-80
2021/06/28 08:41:53;;;;;;;13.27;9.03;;;23.00;53.90;;;;;;5049192;28;20177;-78
2021/06/28 08:44:19;;;;;;;12.00;9.00;;;22.90;57.60;;;;;;5051300;28;20180;-77
2021/06/28 08:46:45;;;;;;;13.00;8.73;;;22.90;59.40;;;;;;5056606;28;20241;-81
2021/06/28 08:49:12;;;;;;;11.10;8.57;;;22.90;62.30;;;;;;5050281;28;20168;-81
2021/06/28 08:51:38;;;;;;;11.83;8.57;;;22.70;69.20;;;;;;5052714;28;20260;-79
2021/06/28 08:54:07;;;;;;;11.63;8.40;;;22.90;68.20;;;;;;5053219;28;20175;-80
2021/06/28 08:56:37;;;;;;;13.63;7.73;;;23.00;62.00;;;;;;5055615;28;20171;-76
2021/06/28 08:59:07;;;;;;;9.77;7.40;;;23.00;63.70;;;;;;5066861;28;20161;-74
2021/06/28 09:01:38;;;;;;;10.67;8.07;;;22.90;62.50;;;;;;5060287;28;20693;-82
2021/06/28 09:04:06;;;;;;;9.80;7.50;;;22.90;63.80;;;;;;5053926;28;20162;-77
2021/06/28 09:06:33;;;;;;;9.43;7.80;;;22.90;63.80;;;;;;5047091;28;20202;-78
2021/06/28 09:09:07;;;;;;;10.23;7.20;;;22.90;64.40;;;;;;5052558;28;20179;-76
2021/06/28 09:11:37;;;;;;;8.60;7.20;;;22.80;64.20;;;;;;5047579;28;20532;-83
2021/06/28 09:14:05;;;;;;;9.93;7.60;;;22.90;58.80;;;;;;5054910;28;20261;-82
2021/06/28 09:16:35;;;;;;;10.43;8.47;;;23.00;57.20;;;;;;5057818;28;20182;-79
2021/06/28 09:19:12;;;;;;;13.63;8.07;;;23.20;53.90;;;;;;5049982;28;20635;-81
2021/06/28 09:21:41;;;;;;;11.17;8.00;;;23.20;55.80;;;;;;5037470;28;20169;-76
2021/06/28 09:24:31;;;;;;;10.63;8.10;;;22.90;60.10;;;;;;5044514;28;20199;-76
2021/06/28 09:27:09;;;;;;;10.83;8.27;;;22.80;59.00;;;;;;5055746;28;20203;-78
2021/06/28 09:29:41;;;;;;;9.60;7.10;;;22.90;54.50;;;;;;5038612;28;20176;-82
2021/06/28 09:32:11;;;;;;;7.43;5.60;;;23.00;52.20;;;;;;5050576;28;20164;-81
2021/06/28 09:34:38;;;;;;;6.97;6.10;;;22.80;41.30;;;;;;5057339;28;20200;-78
2021/06/28 09:37:04;;;;;;;5.20;4.50;;;22.90;41.10;;;;;;5060841;28;20157;-78
2021/06/28 09:39:33;;;;;;;9.23;5.13;;;22.80;40.00;;;;;;5057028;28;20665;-77
2021/06/28 09:42:08;;;;;;;9.77;5.00;;;22.90;28.90;;;;;;5048568;28;20261;-79
2021/06/28 09:44:39;;;;;;;9.53;6.27;;;22.90;24.80;;;;;;5051684;28;20187;-80
2021/06/28 09:47:16;;;;;;;9.30;5.90;;;22.90;31.50;;;;;;5044961;28;20194;-83
2021/06/28 09:50:05;;;;;;;9.70;5.63;;;23.00;32.10;;;;;;5042553;28;20234;-78
2021/06/28 09:52:35;;;;;;;9.70;5.87;;;23.20;24.60;;;;;;5073739;28;20181;-82
2021/06/28 09:55:39;;;;;;;8.37;5.97;;;23.20;25.30;;;;;;5052679;28;20198;-76
2021/06/28 09:58:21;;;;;;;9.80;5.53;;;23.20;29.20;;;;;;5038012;28;20186;-84
2021/06/28 10:00:50;;;;;;;9.43;6.30;;;23.20;32.60;;;;;;5040618;28;20658;-83
2021/06/28 10:03:44;;;;;;;8.10;6.33;;;23.20;29.50;;;;;;5038133;28;20179;-79
2021/06/28 10:09:08;;;;;;;14.23;10.23;;;23.10;40.30;;;;;;5037161;28;20265;-82
2021/06/28 10:11:45;;;;;;;6.10;5.20;;;23.10;29.00;;;;;;5044685;28;20653;-82
2021/06/28 10:14:11;;;;;;;6.03;4.53;;;23.10;17.00;;;;;;5054589;28;20226;-83
2021/06/28 10:16:40;;;;;;;6.40;5.07;;;23.00;18.00;;;;;;5050688;28;20255;-83
2021/06/28 10:19:09;;;;;;;7.77;5.30;;;22.90;25.10;;;;;;5054473;28;20236;-78
2021/06/28 10:21:36;;;;;;;10.63;5.83;;;22.90;29.00;;;;;;5077255;28;20162;-84
2021/06/28 10:24:02;;;;;;;9.67;5.47;;;23.00;26.00;;;;;;5075618;28;20677;-77
2021/06/28 10:26:28;;;;;;;7.70;5.33;;;23.10;23.90;;;;;;5077100;28;20194;-80
2021/06/28 10:28:56;;;;;;;9.03;6.53;;;23.10;23.90;;;;;;5075618;28;20612;-78
2021/06/28 10:31:22;;;;;;;9.17;5.90;;;23.20;21.00;;;;;;5077784;28;20173;-77
2021/06/28 10:33:56;;;;;;;7.33;5.23;;;23.00;25.70;;;;;;5080501;28;20625;-79
2021/06/28 10:36:29;;;;;;;10.90;6.07;;;23.00;23.80;;;;;;5086611;28;20211;-80
2021/06/28 10:38:56;;;;;;;9.47;6.50;;;23.00;28.80;;;;;;5090553;28;20184;-77
2021/06/28 10:41:43;;;;;;;12.00;6.83;;;23.10;30.10;;;;;;5090198;28;20258;-77
2021/06/28 10:44:15;;;;;;;7.70;6.13;;;23.00;37.10;;;;;;5088194;28;20206;-78
2021/06/28 10:46:44;;;;;;;14.00;6.67;;;22.90;47.80;;;;;;5090233;28;20262;-80
2021/06/28 10:49:10;;;;;;;10.00;7.10;;;23.00;49.40;;;;;;5073315;28;20231;-80
2021/06/28 10:51:50;;;;;;;8.63;7.10;;;23.00;49.80;;;;;;5070798;28;20162;-77
2021/06/28 10:54:31;;;;;;;12.07;7.20;;;22.90;50.60;;;;;;5071939;28;20157;-77
2021/06/28 10:56:58;;;;;;;11.40;7.57;;;22.80;51.40;;;;;;5067354;28;20185;-77
2021/06/28 10:59:30;;;;;;;14.37;7.10;;;22.80;58.50;;;;;;5067577;28;20179;-78
2021/06/28 11:02:02;;;;;;;13.93;7.13;;;22.80;56.00;;;;;;5055892;28;20153;-76
2021/06/28 11:04:34;;;;;;;11.70;7.60;;;22.50;66.40;;;;;;5054013;28;20172;-78
2021/06/28 11:07:03;;;;;;;10.30;7.30;;;22.50;70.00;;;;;;5059619;28;20289;-79
2021/06/28 11:09:47;;;;;;;13.00;7.47;;;22.70;65.00;;;;;;5072592;28;20191;-86
2021/06/28 11:12:33;;;;;;;10.57;6.40;;;22.60;62.90;;;;;;5048227;28;20169;-77
2021/06/28 11:15:19;;;;;;;10.63;6.87;;;22.50;64.10;;;;;;5054553;28;20178;-84
2021/06/28 11:17:46;;;;;;;14.40;7.60;;;22.50;69.30;;;;;;5068608;28;20198;-78
2021/06/28 11:20:25;;;;;;;8.03;6.87;;;22.60;67.50;;;;;;5057784;28;20185;-80
2021/06/28 11:22:53;;;;;;;8.83;6.10;;;22.60;67.10;;;;;;5063340;28;20165;-78
2021/06/28 11:25:46;;;;;;;8.93;6.50;;;22.70;72.60;;;;;;5068424;28;20187;-81
2021/06/28 11:28:16;;;;;;;8.40;6.20;;;22.70;70.10;;;;;;5061762;28;20237;-80
2021/06/28 11:31:01;;;;;;;8.70;6.77;;;22.80;62.30;;;;;;5080389;28;20175;-77
2021/06/28 11:33:53;;;;;;;7.83;6.23;;;23.00;58.50;;;;;;5067635;28;20179;-78
2021/06/28 11:36:22;;;;;;;8.97;6.27;;;23.00;58.50;;;;;;5067648;28;20153;-78
2021/06/28 11:38:50;;;;;;;7.60;6.80;;;23.20;56.70;;;;;;5071352;28;20182;-80
2021/06/28 11:41:19;;;;;;;11.40;6.97;;;23.20;56.40;;;;;;5056141;28;20202;-81
2021/06/28 11:43:56;;;;;;;8.27;6.43;;;23.10;55.60;;;;;;5059911;28;20228;-79
2021/06/28 11:46:47;;;;;;;7.77;6.67;;;22.90;58.90;;;;;;5068408;28;20192;-77
2021/06/28 11:49:26;;;;;;;8.10;6.63;;;22.60;63.10;;;;;;5060728;28;20162;-80
2021/06/28 11:52:00;;;;;;;7.97;6.10;;;22.60;64.80;;;;;;5050515;28;20210;-78
2021/06/28 11:54:25;;;;;;;6.30;5.70;;;22.60;67.30;;;;;;5063155;28;20167;-77
2021/06/28 11:57:02;;;;;;;8.53;5.93;;;22.60;66.60;;;;;;5081430;28;20171;-78
2021/06/28 11:59:32;;;;;;;7.93;6.20;;;22.50;68.10;;;;;;5054859;28;20145;-82
2021/06/28 12:02:00;;;;;;;6.23;5.00;;;22.50;67.60;;;;;;5052592;28;20157;-80
2021/06/28 12:04:28;;;;;;;5.60;4.83;;;22.40;59.60;;;;;;5049902;28;20255;-80
2021/06/28 12:07:03;;;;;;;6.23;5.20;;;22.20;62.10;;;;;;5045769;28;20204;-82
2021/06/28 12:09:33;;;;;;;5.07;4.33;;;22.00;71.20;;;;;;5058239;28;20168;-80
2021/06/28 12:12:16;;;;;;;6.53;5.07;;;21.90;71.90;;;;;;5054126;28;20172;-81
2021/06/28 12:14:45;;;;;;;6.40;5.47;;;21.90;78.60;;;;;;5066808;28;20181;-82
2021/06/28 12:17:16;;;;;;;6.43;5.27;;;21.90;80.80;;;;;;5072990;28;20243;-77
2021/06/28 12:19:47;;;;;;;6.17;4.43;;;22.00;78.80;;;;;;5077586;28;20192;-80
2021/06/28 12:22:38;;;;;;;5.77;4.50;;;22.20;76.10;;;;;;5066563;28;20490;-76
2021/06/28 12:25:18;;;;;;;4.27;3.87;;;22.30;69.10;;;;;;5068796;28;20630;-81
2021/06/28 12:27:54;;;;;;;3.10;2.70;;;22.40;59.20;;;;;;5082927;28;20199;-79
2021/06/28 12:30:21;;;;;;;2.70;2.20;;;22.40;46.50;;;;;;5073064;28;20185;-78
2021/06/28 12:32:57;;;;;;;4.00;3.07;;;22.20;48.30;;;;;;5056726;28;20601;-80
2021/06/28 12:35:28;;;;;;;4.70;3.50;;;21.80;57.90;;;;;;5044872;28;20160;-85
2021/06/28 12:37:58;;;;;;;4.33;3.13;;;22.00;59.50;;;;;;5056359;28;20168;-83
2021/06/28 12:40:37;;;;;;;4.00;3.40;;;22.00;58.90;;;;;;5056584;28;20156;-77
2021/06/28 12:43:12;;;;;;;3.77;2.70;;;22.00;58.00;;;;;;5056126;28;20162;-81
2021/06/28 12:45:41;;;;;;;5.03;3.30;;;21.90;55.30;;;;;;5055970;28;20469;-78
2021/06/28 12:48:08;;;;;;;4.40;2.50;;;21.90;57.50;;;;;;5066506;28;20226;-80
2021/06/28 12:50:40;;;;;;;4.00;2.50;;;21.70;55.20;;;;;;5093112;28;20155;-76
2021/06/28 12:53:16;;;;;;;3.00;1.97;;;21.70;57.10;;;;;;5076667;28;20248;-77